Terminal Aerodrome Forecast
Issued by NWS Corpus Christi, TX

Home | Current Version | Previous Version | Text Only | Print | Product List | Glossary On
Versions: 1 2 3 4 5 6 7 8 9 10 11 12 13 14 15 16 17 18 19 20 21 22 23 24 25
000
FTUS44 KCRP 271733
TAFVCT
TAF
KVCT 271733Z 2718/2818 13014G20KT P6SM SCT035
      TEMPO 2718/2720 -RA SCT035
     FM280300 12007KT 6SM BR SCT013 BKN025
      TEMPO 2808/2812 4SM BR FEW008 BKN015
     FM281500 15012KT P6SM SCT025 BKN035=

USA.gov is the U.S. government's official web portal to all federal, state and local government web resources and services.